Time;durP1;ratioP1;P1;durP2;ratioP2;P2;SDS_P1;SDS_P2;PMS_P1;PMS_P2;Temp;Humidity;BMP_temperature;BMP_pressure;BME280_temperature;BME280_humidity;BME280_pressure;Samples;Min_cycle;Max_cycle;Signal;HPM_P1;HPM_P2
2023/09/20 00:01:51;;;;;;;16.60;12.00;;;;;;;12.80;100.00;100887.79;109154;1252;60126;-60
2023/09/20 00:04:19;;;;;;;22.00;12.00;;;;;;;12.78;100.00;100887.70;109208;1254;58493;-59
2023/09/20 00:06:48;;;;;;;18.20;13.40;;;;;;;12.78;100.00;100886.56;109185;1252;73115;-61
2023/09/20 00:09:17;;;;;;;18.20;12.60;;;;;;;12.78;100.00;100891.80;109189;1254;66269;-60
2023/09/20 00:11:46;;;;;;;20.90;13.30;;;;;;;12.77;100.00;100892.55;109157;1254;72672;-62
2023/09/20 00:14:14;;;;;;;17.40;11.60;;;;;;;12.74;100.00;100891.46;109206;1254;60235;-60
2023/09/20 00:16:42;;;;;;;22.60;13.30;;;;;;;12.71;100.00;100891.05;109179;1254;60063;-61
2023/09/20 00:19:09;;;;;;;18.20;12.50;;;;;;;12.68;100.00;100888.19;109205;1254;73066;-60
2023/09/20 00:21:37;;;;;;;21.00;13.20;;;;;;;12.66;100.00;100889.17;109343;1252;67183;-60
2023/09/20 00:24:05;;;;;;;16.40;11.70;;;;;;;12.64;100.00;100890.36;109278;1253;72672;-60
2023/09/20 00:26:33;;;;;;;17.20;12.60;;;;;;;12.61;100.00;100890.41;109175;1254;60425;-60
2023/09/20 00:29:05;;;;;;;15.90;12.20;;;;;;;12.57;100.00;100890.02;109216;1252;61525;-61
2023/09/20 00:31:33;;;;;;;22.00;13.10;;;;;;;12.54;100.00;100893.02;109259;1253;71863;-60
2023/09/20 00:34:04;;;;;;;20.40;13.00;;;;;;;12.52;100.00;100903.19;109196;1253;64687;-61
2023/09/20 00:36:31;;;;;;;20.30;12.90;;;;;;;12.48;100.00;100902.84;109189;1254;71462;-61
2023/09/20 00:39:03;;;;;;;24.50;15.10;;;;;;;12.40;100.00;100898.28;109208;1254;60436;-60
2023/09/20 00:41:31;;;;;;;20.70;14.60;;;;;;;12.33;100.00;100895.27;109231;1253;60110;-60
2023/09/20 00:44:00;;;;;;;23.10;15.70;;;;;;;12.28;100.00;100898.66;109151;1254;71897;-61
2023/09/20 00:46:28;;;;;;;20.30;14.50;;;;;;;12.23;100.00;100900.09;109341;1252;65771;-61
2023/09/20 00:48:56;;;;;;;21.30;15.70;;;;;;;12.18;100.00;100900.12;109064;1254;72737;-60
2023/09/20 00:51:24;;;;;;;22.00;15.00;;;;;;;12.14;100.00;100906.56;109058;1254;60481;-62
2023/09/20 00:53:57;;;;;;;22.80;14.10;;;;;;;12.10;100.00;100912.55;109188;1254;58815;-60
2023/09/20 00:56:25;;;;;;;25.70;15.30;;;;;;;12.08;100.00;100914.02;109216;1253;73519;-60
2023/09/20 00:58:56;;;;;;;20.70;14.50;;;;;;;12.04;100.00;100915.17;109157;1254;66756;-59
2023/09/20 01:01:26;;;;;;;24.00;14.40;;;;;;;12.01;100.00;100918.02;109162;1253;72939;-60
2023/09/20 01:03:55;;;;;;;25.10;15.20;;;;;;;11.98;100.00;100916.80;109189;1254;61712;-61
2023/09/20 01:06:26;;;;;;;22.20;14.40;;;;;;;11.94;100.00;100918.46;109218;1253;60115;-60
2023/09/20 01:08:55;;;;;;;29.30;14.80;;;;;;;11.92;100.00;100919.32;109141;1254;73372;-60
2023/09/20 01:11:23;;;;;;;23.10;15.90;;;;;;;11.89;100.00;100919.45;109226;1253;66929;-59
2023/09/20 01:13:52;;;;;;;21.80;15.10;;;;;;;11.88;100.00;100921.41;109170;1254;72702;-61
2023/09/20 01:16:20;;;;;;;26.30;15.80;;;;;;;11.84;100.00;100921.44;109327;1253;60228;-62
2023/09/20 01:18:48;;;;;;;21.90;15.30;;;;;;;11.81;100.00;100935.17;109207;1254;58775;-60
2023/09/20 01:21:16;;;;;;;23.80;15.90;;;;;;;11.80;100.00;100949.45;109226;1253;71318;-60
2023/09/20 01:23:43;;;;;;;20.40;15.40;;;;;;;11.74;100.00;100951.08;109142;1254;66950;-61
2023/09/20 01:26:11;;;;;;;22.60;14.80;;;;;;;11.68;100.00;100948.65;109086;1252;73583;-60
2023/09/20 01:28:39;;;;;;;22.30;16.00;;;;;;;11.63;100.00;100947.98;109090;1252;60678;-60
2023/09/20 01:31:08;;;;;;;20.60;15.50;;;;;;;11.61;100.00;100951.27;109126;1251;60116;-60
2023/09/20 01:33:37;;;;;;;20.30;14.20;;;;;;;11.57;100.00;100952.21;109220;1253;73178;-60
2023/09/20 01:36:06;;;;;;;20.90;14.50;;;;;;;11.53;100.00;100952.70;109214;1253;66469;-61
2023/09/20 01:38:34;;;;;;;28.60;15.70;;;;;;;11.47;100.00;100954.36;109090;1254;71319;-61
2023/09/20 01:41:03;;;;;;;22.50;15.80;;;;;;;11.44;100.00;100958.26;109138;1254;60109;-60
2023/09/20 01:43:31;;;;;;;21.10;14.60;;;;;;;11.42;100.00;100957.45;109070;1252;58813;-60
2023/09/20 01:45:59;;;;;;;21.00;14.50;;;;;;;11.41;100.00;100959.39;109206;1252;71839;-61
2023/09/20 01:48:26;;;;;;;20.90;14.80;;;;;;;11.40;100.00;100962.23;109191;1252;66218;-59
2023/09/20 01:50:54;;;;;;;20.70;15.30;;;;;;;11.37;100.00;100962.57;109186;1254;72730;-58
2023/09/20 01:53:24;;;;;;;22.20;14.70;;;;;;;11.37;100.00;100964.36;109221;1253;60065;-58
2023/09/20 01:55:52;;;;;;;22.10;14.90;;;;;;;11.37;100.00;100970.98;109228;1253;58991;-60
2023/09/20 01:58:20;;;;;;;24.70;14.90;;;;;;;11.36;100.00;100971.91;109139;1253;73471;-59
2023/09/20 02:00:50;;;;;;;23.70;14.70;;;;;;;11.35;100.00;100969.66;109242;1252;65993;-58
2023/09/20 02:03:18;;;;;;;18.30;12.60;;;;;;;11.33;100.00;100973.45;109209;1253;70726;-60
2023/09/20 02:05:48;;;;;;;18.00;14.10;;;;;;;11.31;100.00;100972.71;109113;1252;60957;-62
2023/09/20 02:08:17;;;;;;;23.20;13.90;;;;;;;11.28;100.00;100975.26;109098;1256;60104;-61
2023/09/20 02:10:45;;;;;;;21.00;15.00;;;;;;;11.26;100.00;100975.19;109234;1254;73061;-60
2023/09/20 02:13:16;;;;;;;21.30;15.00;;;;;;;11.26;100.00;100977.89;109241;1252;67046;-60
2023/09/20 02:15:45;;;;;;;19.40;13.20;;;;;;;11.25;100.00;100978.04;109134;1254;72720;-62
2023/09/20 02:18:13;;;;;;;21.10;13.50;;;;;;;11.24;100.00;100976.98;109137;1252;61703;-63
2023/09/20 02:20:41;;;;;;;19.50;13.80;;;;;;;11.22;100.00;100973.70;109219;1254;59318;-60
2023/09/20 02:23:12;;;;;;;17.60;13.40;;;;;;;11.20;100.00;100973.17;109106;1253;72629;-60
2023/09/20 02:25:42;;;;;;;20.70;13.40;;;;;;;11.18;100.00;100972.14;109248;1252;65805;-61
2023/09/20 02:28:11;;;;;;;21.30;14.10;;;;;;;11.17;100.00;100973.85;109131;1254;72719;-65
2023/09/20 02:30:41;;;;;;;19.50;13.70;;;;;;;11.16;100.00;100976.09;109014;1253;61707;-60
2023/09/20 02:33:10;;;;;;;19.70;13.90;;;;;;;11.14;100.00;100975.45;109198;1252;58626;-60
2023/09/20 02:35:39;;;;;;;21.10;14.80;;;;;;;11.12;100.00;100975.58;109219;1254;74369;-63
2023/09/20 02:38:09;;;;;;;19.40;14.80;;;;;;;11.10;100.00;100978.14;109154;1253;66947;-60
2023/09/20 02:40:37;;;;;;;23.80;15.00;;;;;;;11.09;100.00;100975.66;109064;1254;71302;-60
2023/09/20 02:43:12;;;;;;;28.30;15.70;;;;;;;11.09;100.00;100981.21;108950;1252;60530;-60
2023/09/20 02:45:44;;;;;;;22.20;14.00;;;;;;;11.07;100.00;100979.69;109161;1253;58761;-62
2023/09/20 02:48:13;;;;;;;21.00;14.90;;;;;;;11.05;100.00;100975.34;109100;1253;73980;-60
2023/09/20 02:50:44;;;;;;;17.70;14.60;;;;;;;11.05;100.00;100982.68;109101;1253;66936;-60
2023/09/20 02:53:13;;;;;;;18.10;13.40;;;;;;;11.04;100.00;100983.67;109210;1254;72677;-60
2023/09/20 02:55:42;;;;;;;17.70;13.80;;;;;;;11.07;100.00;100986.50;109122;1252;61557;-61
2023/09/20 02:58:10;;;;;;;19.60;13.90;;;;;;;11.11;100.00;100992.09;109197;1252;58816;-60
2023/09/20 03:00:46;;;;;;;19.70;15.10;;;;;;;11.16;100.00;100994.04;109099;1256;72649;-60
2023/09/20 03:03:15;;;;;;;22.10;14.70;;;;;;;11.19;100.00;100994.55;109126;1252;65634;-62
2023/09/20 03:05:44;;;;;;;19.20;13.90;;;;;;;11.21;100.00;100998.30;109087;1253;72298;-60
2023/09/20 03:08:12;;;;;;;21.10;14.60;;;;;;;11.23;100.00;100997.92;108936;1256;61758;-60
2023/09/20 03:10:43;;;;;;;20.60;14.30;;;;;;;11.23;100.00;100996.85;108971;1253;58900;-60
2023/09/20 03:13:16;;;;;;;15.00;12.50;;;;;;;11.23;100.00;101001.77;108983;1253;74025;-63
2023/09/20 03:15:48;;;;;;;21.80;14.30;;;;;;;11.22;100.00;101002.02;108867;1257;67893;-61
2023/09/20 03:18:18;;;;;;;21.10;14.80;;;;;;;11.22;100.00;101005.93;109090;1253;71734;-60
2023/09/20 03:20:53;;;;;;;19.70;14.30;;;;;;;11.23;100.00;101004.91;108964;1253;58878;-62
2023/09/20 03:23:22;;;;;;;21.70;14.40;;;;;;;11.27;100.00;101001.54;108921;1253;60633;-62
2023/09/20 03:25:50;;;;;;;21.20;13.60;;;;;;;11.32;100.00;101007.33;108945;1253;74453;-60
2023/09/20 03:28:23;;;;;;;19.00;13.50;;;;;;;11.43;100.00;101010.15;109149;1253;65624;-59
2023/09/20 03:30:53;;;;;;;19.70;13.30;;;;;;;11.58;100.00;101009.52;109101;1254;71943;-61
2023/09/20 03:33:21;;;;;;;18.90;13.60;;;;;;;11.80;100.00;101010.39;108904;1255;58776;-60
2023/09/20 03:35:49;;;;;;;20.10;13.50;;;;;;;12.07;100.00;101010.46;108984;1253;58908;-59
2023/09/20 03:38:17;;;;;;;23.10;14.10;;;;;;;12.38;100.00;101007.16;109114;1253;72699;-59
2023/09/20 03:40:45;;;;;;;15.80;11.60;;;;;;;12.72;100.00;101013.45;109047;1253;65820;-59
2023/09/20 03:43:13;;;;;;;19.50;12.90;;;;;;;13.08;100.00;101011.39;109118;1253;72743;-61
2023/09/20 03:45:47;;;;;;;19.70;13.80;;;;;;;13.46;100.00;101012.76;109174;1253;60249;-59
2023/09/20 03:48:15;;;;;;;16.70;12.40;;;;;;;13.87;100.00;101010.84;109104;1253;58852;-60
2023/09/20 03:50:45;;;;;;;20.20;12.20;;;;;;;14.26;100.00;101004.66;109188;1253;74338;-59
2023/09/20 03:53:13;;;;;;;19.70;13.80;;;;;;;14.73;100.00;101001.86;108881;1254;65669;-60
2023/09/20 03:55:46;;;;;;;21.30;13.50;;;;;;;15.27;100.00;100993.96;109108;1254;71560;-59
2023/09/20 03:58:13;;;;;;;16.70;11.90;;;;;;;15.71;100.00;100985.55;109027;1253;58892;-61
2023/09/20 04:00:44;;;;;;;15.80;12.10;;;;;;;16.10;100.00;100974.63;108981;1253;59536;-60
2023/09/20 04:03:13;;;;;;;20.30;13.00;;;;;;;16.50;100.00;100962.63;108954;1253;73928;-59
2023/09/20 04:05:41;;;;;;;21.10;12.70;;;;;;;16.83;100.00;100942.86;109184;1253;66824;-60
2023/09/20 04:08:16;;;;;;;16.50;12.20;;;;;;;17.20;100.00;100936.05;109262;1253;73087;-62
2023/09/20 04:10:45;;;;;;;16.50;12.80;;;;;;;17.61;100.00;100927.42;109154;1253;59131;-61
2023/09/20 04:13:17;;;;;;;14.20;11.50;;;;;;;17.92;100.00;100914.81;109265;1253;60101;-59
2023/09/20 04:15:45;;;;;;;18.70;14.10;;;;;;;18.24;100.00;100913.80;109221;1253;73885;-59
2023/09/20 04:18:13;;;;;;;20.10;14.00;;;;;;;18.48;100.00;100904.43;109197;1254;66902;-61
2023/09/20 04:20:45;;;;;;;16.30;12.80;;;;;;;18.74;100.00;100899.34;109047;1253;72723;-61
2023/09/20 04:23:13;;;;;;;;;;;;;;;18.99;100.00;100899.65;108967;1254;58901;-59
2023/09/20 04:25:41;;;;;;;16.90;12.50;;;;;;;19.20;100.00;100898.44;109196;1253;58621;-59
2023/09/20 04:28:09;;;;;;;18.40;12.70;;;;;;;19.42;100.00;100898.00;109233;1253;72460;-59
2023/09/20 04:30:38;;;;;;;14.70;12.50;;;;;;;19.68;100.00;100893.29;109048;1253;65660;-61
2023/09/20 04:33:10;;;;;;;16.90;13.30;;;;;;;19.99;100.00;100896.29;109178;1254;71063;-59
2023/09/20 04:35:40;;;;;;;16.20;14.00;;;;;;;20.40;100.00;100897.04;109225;1253;59022;-59
2023/09/20 04:38:13;;;;;;;16.90;12.90;;;;;;;20.79;100.00;100897.55;109195;1253;58931;-61
2023/09/20 04:40:41;;;;;;;15.80;12.70;;;;;;;21.15;100.00;100900.73;109155;1254;73861;-60
2023/09/20 04:43:08;;;;;;;14.90;12.60;;;;;;;21.46;100.00;100902.69;109249;1252;67415;-60
2023/09/20 04:45:36;;;;;;;16.50;13.20;;;;;;;21.71;100.00;100898.98;109193;1253;72767;-60
2023/09/20 04:48:05;;;;;;;13.80;12.30;;;;;;;21.93;100.00;100902.75;109208;1253;58763;-60
2023/09/20 04:50:34;;;;;;;15.60;11.90;;;;;;;22.19;100.00;100898.33;109067;1252;60254;-61
2023/09/20 04:53:02;;;;;;;13.90;11.90;;;;;;;22.42;100.00;100898.53;109250;1253;74478;-60
2023/09/20 04:55:34;;;;;;;16.10;12.60;;;;;;;22.50;100.00;100897.58;109142;1253;67398;-59
2023/09/20 04:58:01;;;;;;;16.60;12.40;;;;;;;22.55;100.00;100898.02;109182;1253;72721;-59
2023/09/20 05:00:37;;;;;;;18.00;12.70;;;;;;;22.46;100.00;100895.98;109156;1253;59207;-60
2023/09/20 05:03:08;;;;;;;16.80;12.50;;;;;;;22.30;100.00;100894.60;109233;1253;58793;-60
2023/09/20 05:05:36;;;;;;;19.30;13.20;;;;;;;21.97;100.00;100896.80;109154;1253;73960;-59
2023/09/20 05:08:04;;;;;;;16.70;12.70;;;;;;;21.61;100.00;100902.35;109094;1253;67219;-61
2023/09/20 05:10:32;;;;;;;19.00;12.70;;;;;;;21.30;100.00;100900.63;109121;1253;74098;-61
2023/09/20 05:13:01;;;;;;;27.90;17.90;;;;;;;21.08;100.00;100899.34;109070;1253;59453;-59
2023/09/20 05:15:29;;;;;;;22.10;15.00;;;;;;;21.01;100.00;100900.10;108971;1253;58777;-59
2023/09/20 05:17:57;;;;;;;16.50;12.40;;;;;;;20.93;100.00;100897.05;108910;1253;74393;-60
2023/09/20 05:20:25;;;;;;;17.80;13.80;;;;;;;20.85;100.00;100900.69;109080;1254;67060;-59
2023/09/20 05:22:53;;;;;;;15.10;11.70;;;;;;;20.79;100.00;100904.02;109080;1255;71449;-60
2023/09/20 05:25:20;;;;;;;16.90;13.10;;;;;;;20.75;100.00;100902.25;108918;1256;58927;-59
2023/09/20 05:27:48;;;;;;;16.60;12.70;;;;;;;20.73;100.00;100908.71;109132;1255;60083;-60
2023/09/20 05:30:18;;;;;;;16.60;13.20;;;;;;;20.69;100.00;100907.37;109074;1254;73909;-60
2023/09/20 05:32:50;;;;;;;17.30;13.20;;;;;;;20.69;100.00;100913.08;108831;1256;65578;-61
2023/09/20 05:35:18;;;;;;;16.40;12.90;;;;;;;20.62;100.00;100909.67;109065;1256;71217;-59
2023/09/20 05:37:45;;;;;;;15.00;12.30;;;;;;;20.54;100.00;100907.01;109158;1253;60124;-60
2023/09/20 05:40:17;;;;;;;18.20;12.00;;;;;;;20.47;100.00;100910.75;109126;1253;60456;-59
2023/09/20 05:42:45;;;;;;;17.60;13.60;;;;;;;20.45;100.00;100914.95;109031;1253;73911;-60
2023/09/20 05:45:14;;;;;;;14.40;11.80;;;;;;;20.49;100.00;100915.95;109221;1255;67422;-59
2023/09/20 05:47:42;;;;;;;15.70;11.20;;;;;;;20.49;100.00;100918.64;109119;1253;73244;-59
2023/09/20 05:50:10;;;;;;;17.40;12.40;;;;;;;20.47;100.00;100918.80;109079;1253;60520;-60
2023/09/20 05:52:43;;;;;;;16.00;12.40;;;;;;;20.48;100.00;100920.20;109098;1256;60176;-59
2023/09/20 05:55:14;;;;;;;16.70;12.40;;;;;;;20.55;100.00;100919.16;109114;1253;73165;-59
2023/09/20 05:57:42;;;;;;;18.90;12.80;;;;;;;20.69;100.00;100922.59;109192;1253;65689;-61
2023/09/20 06:00:16;;;;;;;14.80;11.70;;;;;;;20.94;100.00;100921.27;109062;1254;73181;-60
2023/09/20 06:02:44;;;;;;;15.30;11.80;;;;;;;21.18;100.00;100922.54;109108;1256;60311;-59
2023/09/20 06:05:14;;;;;;;18.50;12.90;;;;;;;21.35;100.00;100927.48;109149;1255;58710;-59
2023/09/20 06:07:44;;;;;;;14.00;11.50;;;;;;;21.54;100.00;100929.89;109029;1256;73946;-62
2023/09/20 06:10:12;;;;;;;13.90;10.50;;;;;;;22.05;100.00;100929.33;109054;1256;65964;-60
2023/09/20 06:12:40;;;;;;;16.50;12.20;;;;;;;22.81;100.00;100922.77;109019;1255;72925;-59
2023/09/20 06:15:08;;;;;;;13.20;11.80;;;;;;;23.62;100.00;100921.55;109072;1253;60137;-60
2023/09/20 06:17:36;;;;;;;17.20;10.60;;;;;;;24.36;100.00;100917.41;109132;1253;60247;-60
2023/09/20 06:20:11;;;;;;;11.10;9.40;;;;;;;24.91;95.36;100918.40;109037;1253;72645;-60
2023/09/20 06:22:39;;;;;;;13.20;8.80;;;;;;;25.40;86.03;100915.17;109102;1253;67089;-59
2023/09/20 06:25:07;;;;;;;10.90;9.60;;;;;;;25.91;74.26;100914.21;109143;1253;73218;-60
2023/09/20 06:27:35;;;;;;;12.70;9.90;;;;;;;26.51;64.63;100915.59;109208;1253;59325;-63
2023/09/20 06:30:07;;;;;;;12.00;9.90;;;;;;;27.02;62.49;100912.84;109087;1253;60185;-63
2023/09/20 06:32:35;;;;;;;13.90;10.80;;;;;;;27.55;60.58;100909.70;109139;1253;72998;-60
2023/09/20 06:35:09;;;;;;;13.80;11.20;;;;;;;27.95;55.89;100911.89;109157;1253;66253;-60
2023/09/20 06:37:38;;;;;;;21.30;19.00;;;;;;;28.32;53.90;100915.63;109050;1256;72773;-64
2023/09/20 06:40:33;;;;;;;12.60;10.40;;;;;;;28.71;50.00;100915.63;109078;1254;60144;-63
2023/09/20 06:43:01;;;;;;;11.60;9.10;;;;;;;29.32;46.65;100912.52;109163;1254;60202;-60
2023/09/20 06:45:29;;;;;;;10.00;8.80;;;;;;;29.75;44.20;100913.98;108956;1256;72644;-61
2023/09/20 06:47:56;;;;;;;9.00;7.60;;;;;;;30.02;42.81;100911.35;109100;1256;65725;-62
2023/09/20 06:50:24;;;;;;;11.70;8.50;;;;;;;30.30;41.13;100910.71;109182;1254;72653;-61
2023/09/20 06:52:54;;;;;;;11.30;8.30;;;;;;;30.58;39.83;100914.73;109129;1254;58587;-61
2023/09/20 06:55:21;;;;;;;16.30;11.90;;;;;;;30.82;39.53;100913.70;109119;1254;60122;-62
2023/09/20 06:57:49;;;;;;;15.00;11.30;;;;;;;31.20;39.61;100913.54;109048;1256;74537;-62
2023/09/20 07:02:55;;;;;;;11.60;8.20;;;;;;;31.89;37.99;100915.91;109098;1254;72731;-61
2023/09/20 07:05:24;;;;;;;12.90;9.90;;;;;;;32.21;37.88;100915.56;108993;1255;60490;-62
2023/09/20 07:07:53;;;;;;;9.20;8.20;;;;;;;32.58;36.83;100917.33;108922;1256;60370;-61
2023/09/20 07:10:21;;;;;;;12.20;8.50;;;;;;;32.61;35.03;100919.53;109178;1255;65019;-60
2023/09/20 07:12:55;;;;;;;19.30;16.80;;;;;;;32.59;34.86;100919.14;109023;1256;65700;-61
2023/09/20 07:15:25;;;;;;;18.30;10.00;;;;;;;32.86;34.96;100919.27;108982;1256;72905;-62
2023/09/20 07:17:58;;;;;;;12.60;11.20;;;;;;;33.06;33.97;100917.84;108959;1255;58638;-62
2023/09/20 07:20:31;;;;;;;10.90;9.60;;;;;;;33.36;33.24;100915.74;109011;1256;58763;-61
2023/09/20 07:22:59;;;;;;;13.90;10.70;;;;;;;33.74;33.34;100917.58;109036;1254;63813;-62
2023/09/20 07:25:31;;;;;;;8.80;7.70;;;;;;;34.13;33.00;100916.17;109002;1255;60952;-61
2023/09/20 07:27:59;;;;;;;9.50;7.30;;;;;;;34.33;31.32;100916.19;108960;1255;64730;-62
2023/09/20 07:30:31;;;;;;;12.80;8.70;;;;;;;34.43;30.99;100918.42;109034;1256;58238;-60
2023/09/20 07:33:02;;;;;;;15.00;9.30;;;;;;;34.59;30.73;100915.36;109032;1256;58283;-61
2023/09/20 07:35:39;;;;;;;9.80;8.20;;;;;;;34.70;30.86;100914.90;109041;1254;65051;-63
2023/09/20 07:38:15;;;;;;;8.40;6.70;;;;;;;34.93;30.35;100918.39;109045;1256;58661;-61
2023/09/20 07:40:50;;;;;;;8.00;6.70;;;;;;;34.98;28.93;100916.55;109032;1253;63834;-61
2023/09/20 07:43:18;;;;;;;9.20;6.00;;;;;;;34.83;28.48;100913.62;109109;1253;58605;-62
2023/09/20 07:45:56;;;;;;;10.60;6.60;;;;;;;34.67;28.00;100911.45;109216;1253;58354;-61
2023/09/20 07:48:27;;;;;;;8.70;6.70;;;;;;;34.62;28.45;100907.48;108944;1253;63921;-61
2023/09/20 07:50:55;;;;;;;8.10;5.90;;;;;;;34.56;28.97;100904.17;109143;1253;60552;-62
2023/09/20 07:53:25;;;;;;;7.70;5.70;;;;;;;34.66;29.09;100900.98;109037;1253;63805;-61
2023/09/20 07:56:00;;;;;;;9.80;6.50;;;;;;;34.91;28.45;100900.11;109135;1253;58652;-60
2023/09/20 07:58:28;;;;;;;8.90;5.90;;;;;;;35.11;27.75;100899.54;109299;1253;58265;-61
2023/09/20 08:00:56;;;;;;;7.10;5.00;;;;;;;35.45;26.56;100892.20;109163;1253;63748;-64
2023/09/20 08:03:24;;;;;;;6.40;4.30;;;;;;;35.69;25.95;100889.30;109056;1253;58803;-63
2023/09/20 08:05:53;;;;;;;6.30;4.60;;;;;;;35.95;25.81;100882.16;109297;1253;65203;-62
2023/09/20 08:08:21;;;;;;;7.70;5.30;;;;;;;36.31;25.01;100878.38;109119;1253;58251;-62
2023/09/20 08:10:49;;;;;;;7.40;5.10;;;;;;;36.40;24.40;100878.73;109090;1253;58472;-64
2023/09/20 08:13:37;;;;;;;8.40;6.40;;;;;;;36.32;24.82;100877.41;109098;1253;67309;-62
2023/09/20 08:16:09;;;;;;;9.30;6.30;;;;;;;36.19;25.11;100876.70;109083;1253;60306;-61
2023/09/20 08:21:25;;;;;;;5.90;5.30;;;;;;;35.46;25.11;100874.55;109148;1253;58426;-61
2023/09/20 09:00:24;;;;;;;4.40;3.40;;;;;;;31.39;24.62;100843.34;109190;1254;72703;-64
2023/09/20 09:03:00;;;;;;;5.60;4.30;;;;;;;31.46;25.13;100842.81;109283;1253;58841;-62
2023/09/20 09:05:29;;;;;;;7.30;4.90;;;;;;;31.50;25.15;100844.13;109184;1254;60114;-62
2023/09/20 09:07:58;;;;;;;5.10;4.00;;;;;;;31.43;25.09;100837.48;109195;1254;76009;-62
2023/09/20 09:10:26;;;;;;;5.90;4.20;;;;;;;31.52;25.59;100839.23;109178;1254;67785;-63
2023/09/20 09:12:55;;;;;;;5.90;4.30;;;;;;;31.66;25.23;100835.29;109332;1253;74737;-61
2023/09/20 09:15:25;;;;;;;6.00;4.80;;;;;;;31.64;25.36;100836.91;109276;1253;61458;-60
2023/09/20 09:17:53;;;;;;;6.40;4.90;;;;;;;31.49;25.53;100830.31;109199;1253;60016;-60
2023/09/20 09:20:22;;;;;;;5.00;4.50;;;;;;;31.33;25.78;100828.34;109153;1254;76213;-61
2023/09/20 09:22:50;;;;;;;6.00;4.60;;;;;;;31.28;26.21;100830.11;109249;1254;67389;-62
2023/09/20 09:25:20;;;;;;;16.20;14.40;;;;;;;31.32;25.99;100833.11;109276;1253;74178;-63
2023/09/20 09:27:48;;;;;;;8.40;6.50;;;;;;;31.20;25.95;100833.25;109150;1253;62164;-60
2023/09/20 09:30:16;;;;;;;7.10;4.70;;;;;;;31.09;26.21;100831.60;109142;1253;61026;-60
2023/09/20 09:32:47;;;;;;;9.00;6.30;;;;;;;31.29;26.85;100824.98;109062;1253;76065;-62
2023/09/20 09:35:19;;;;;;;7.50;4.80;;;;;;;31.50;25.91;100823.05;109099;1253;69190;-60
2023/09/20 09:37:49;;;;;;;6.70;4.70;;;;;;;31.47;25.76;100826.85;109104;1257;76170;-61
2023/09/20 09:40:18;;;;;;;5.60;4.70;;;;;;;31.40;25.73;100820.52;109071;1256;61300;-60
2023/09/20 09:42:46;;;;;;;5.70;4.70;;;;;;;31.38;25.53;100819.52;109027;1253;58719;-61
2023/09/20 09:45:28;;;;;;;5.10;4.40;;;;;;;31.45;25.80;100817.69;109065;1253;72657;-60
2023/09/20 09:47:59;;;;;;;5.00;4.20;;;;;;;31.58;25.76;100810.79;108977;1253;65845;-61
2023/09/20 09:50:34;;;;;;;4.40;4.00;;;;;;;31.79;25.97;100809.73;108924;1253;73609;-61
2023/09/20 09:53:02;;;;;;;6.90;4.00;;;;;;;31.93;25.09;100809.20;109100;1253;62227;-62
2023/09/20 09:55:30;;;;;;;5.50;4.10;;;;;;;32.00;25.24;100798.97;109060;1252;59164;-60
2023/09/20 09:57:58;;;;;;;6.50;3.90;;;;;;;32.30;25.37;100799.90;109246;1254;75595;-62
2023/09/20 10:00:26;;;;;;;6.80;4.40;;;;;;;32.52;24.96;100793.72;109333;1252;60614;-60
2023/09/20 10:02:54;;;;;;;4.90;3.90;;;;;;;32.54;25.13;100793.21;109186;1254;72843;-63
2023/09/20 10:05:21;;;;;;;5.10;4.10;;;;;;;32.50;24.92;100789.27;109048;1254;62194;-63
2023/09/20 10:07:49;;;;;;;5.30;3.80;;;;;;;32.50;24.76;100790.70;109186;1254;62142;-64
2023/09/20 10:10:22;;;;;;;5.90;4.00;;;;;;;32.59;24.79;100786.80;109047;1253;72618;-63
2023/09/20 10:12:50;;;;;;;6.70;4.40;;;;;;;32.65;24.72;100784.60;109228;1253;58644;-59
2023/09/20 10:15:18;;;;;;;9.60;5.10;;;;;;;32.60;25.19;100781.99;109120;1254;63764;-60
2023/09/20 10:17:54;;;;;;;5.40;4.00;;;;;;;32.61;25.03;100780.09;109101;1253;58430;-62
2023/09/20 10:20:23;;;;;;;5.70;4.20;;;;;;;32.43;25.01;100784.78;109042;1254;230652;-61
2023/09/20 10:22:52;;;;;;;8.00;4.50;;;;;;;32.17;25.21;100788.80;109249;1253;75846;-62
2023/09/20 10:25:32;;;;;;;6.30;4.20;;;;;;;31.80;25.04;100784.94;109083;1255;67416;-63
2023/09/20 10:28:08;;;;;;;6.10;4.60;;;;;;;31.47;25.28;100775.94;109219;1254;74744;-60
2023/09/20 10:31:01;;;;;;;5.30;4.20;;;;;;;31.43;25.87;100775.77;109252;1253;60407;-60
2023/09/20 10:33:45;;;;;;;5.50;4.40;;;;;;;31.29;25.30;100775.04;109082;1254;60887;-63
2023/09/20 10:36:22;;;;;;;5.30;4.00;;;;;;;31.07;25.39;100775.01;109296;1253;73883;-62
2023/09/20 10:39:20;;;;;;;5.70;4.40;;;;;;;31.03;25.79;100773.81;109282;1254;69288;-63
2023/09/20 10:41:49;;;;;;;5.50;4.60;;;;;;;30.97;25.40;100771.27;109330;1252;64935;-61
2023/09/20 10:44:43;;;;;;;8.30;5.00;;;;;;;30.67;25.31;100769.79;109120;1254;62967;-63
2023/09/20 10:47:16;;;;;;;5.50;4.40;;;;;;;30.39;25.75;100768.86;109330;1252;58831;-64
2023/09/20 10:49:48;;;;;;;5.60;4.50;;;;;;;30.19;25.58;100769.65;109287;1253;73919;-63
2023/09/20 10:52:32;;;;;;;5.10;4.40;;;;;;;30.00;26.08;100763.09;109171;1254;68008;-65
2023/09/20 10:55:28;;;;;;;5.60;4.60;;;;;;;29.91;25.82;100773.86;109225;1253;74972;-60
2023/09/20 10:57:56;;;;;;;7.00;4.80;;;;;;;29.80;26.40;100766.73;109243;1254;62024;-62
2023/09/20 11:00:30;;;;;;;6.20;4.20;;;;;;;29.88;26.64;100759.20;109198;1254;63712;-61
2023/09/20 11:02:59;;;;;;;5.90;5.00;;;;;;;30.02;26.73;100759.02;109182;1253;76447;-66
2023/09/20 11:05:28;;;;;;;6.30;4.90;;;;;;;30.04;26.41;100757.25;109140;1258;69912;-63
2023/09/20 11:07:58;;;;;;;5.80;4.70;;;;;;;30.07;26.91;100760.52;109194;1254;73757;-62
2023/09/20 11:10:26;;;;;;;9.30;5.60;;;;;;;30.18;26.58;100756.39;109163;1254;62181;-62
2023/09/20 11:12:55;;;;;;;6.30;5.10;;;;;;;30.22;26.85;100756.15;109172;1253;59661;-64
2023/09/20 11:15:23;;;;;;;7.80;5.40;;;;;;;30.31;26.41;100753.91;109221;1254;77055;-63
2023/09/20 11:17:53;;;;;;;6.60;5.30;;;;;;;30.37;26.45;100749.15;109164;1254;68958;-63
2023/09/20 11:20:21;;;;;;;7.10;5.50;;;;;;;30.42;26.23;100748.65;109175;1254;74812;-63
2023/09/20 11:22:49;;;;;;;7.80;5.90;;;;;;;30.34;26.39;100750.23;109018;1254;61499;-64
2023/09/20 11:25:17;;;;;;;6.70;5.60;;;;;;;30.31;26.30;100749.39;109158;1257;61957;-65
2023/09/20 11:27:44;;;;;;;9.00;5.50;;;;;;;30.28;26.20;100745.51;109185;1254;75645;-62
2023/09/20 11:30:13;;;;;;;7.60;5.30;;;;;;;30.30;26.77;100741.88;109222;1252;67076;-61
2023/09/20 11:32:41;;;;;;;7.80;5.50;;;;;;;30.40;26.76;100739.56;109198;1254;72663;-64
2023/09/20 11:35:09;;;;;;;12.60;6.20;;;;;;;30.43;26.19;100742.11;109205;1254;62914;-61
2023/09/20 11:37:38;;;;;;;10.60;7.00;;;;;;;30.27;26.26;100742.36;109038;1254;60088;-63
2023/09/20 11:40:06;;;;;;;7.30;6.20;;;;;;;30.13;26.47;100738.89;109168;1253;73935;-61
2023/09/20 11:42:35;;;;;;;9.20;6.20;;;;;;;29.99;26.58;100735.54;109303;1254;66082;-62
2023/09/20 11:45:05;;;;;;;7.40;5.60;;;;;;;29.92;27.05;100736.42;109212;1254;72698;-64
2023/09/20 11:47:53;;;;;;;8.50;5.40;;;;;;;29.92;27.08;100735.58;109291;1254;61521;-61
2023/09/20 11:50:22;;;;;;;8.20;6.00;;;;;;;29.96;26.64;100730.81;109151;1254;58819;-62
2023/09/20 11:52:49;;;;;;;8.90;6.00;;;;;;;29.92;26.83;100728.98;109164;1255;76004;-63
2023/09/20 11:55:19;;;;;;;7.60;5.40;;;;;;;29.78;26.95;100732.48;109209;1252;68979;-61
2023/09/20 11:57:47;;;;;;;9.60;5.80;;;;;;;29.66;27.05;100725.48;109187;1253;76195;-61